sensor_id;sensor_type;location;lat;lon;timestamp;P1;durP1;ratioP1;P2;durP2;ratioP2
62151;SDS011;48139;47.474;19.034;2023-06-14T03:49:55;11.38;;;4.53;;
62151;SDS011;48139;47.474;19.034;2023-06-14T03:52:58;8.77;;;5.12;;
62151;SDS011;48139;47.474;19.034;2023-06-14T03:56:00;9.07;;;4.45;;
62151;SDS011;48139;47.474;19.034;2023-06-14T03:59:05;9.18;;;5.25;;
62151;SDS011;48139;47.474;19.034;2023-06-14T04:02:08;10.68;;;4.68;;
62151;SDS011;48139;47.474;19.034;2023-06-14T04:05:11;10.48;;;5.15;;
62151;SDS011;48139;47.474;19.034;2023-06-14T04:08:15;11.73;;;5.05;;
62151;SDS011;48139;47.474;19.034;2023-06-14T04:11:18;8.88;;;4.65;;
62151;SDS011;48139;47.474;19.034;2023-06-14T04:14:21;8.30;;;4.72;;
62151;SDS011;48139;47.474;19.034;2023-06-14T04:17:25;10.63;;;4.85;;
62151;SDS011;48139;47.474;19.034;2023-06-14T04:20:27;12.73;;;6.37;;
62151;SDS011;48139;47.474;19.034;2023-06-14T04:23:30;12.70;;;6.40;;
62151;SDS011;48139;47.474;19.034;2023-06-14T04:26:33;13.65;;;6.75;;
62151;SDS011;48139;47.474;19.034;2023-06-14T04:29:36;10.68;;;5.93;;
62151;SDS011;48139;47.474;19.034;2023-06-14T04:32:39;11.48;;;6.32;;
62151;SDS011;48139;47.474;19.034;2023-06-14T04:35:43;11.00;;;5.20;;
62151;SDS011;48139;47.474;19.034;2023-06-14T04:38:50;11.23;;;5.35;;
62151;SDS011;48139;47.474;19.034;2023-06-14T04:41:57;11.20;;;4.90;;
62151;SDS011;48139;47.474;19.034;2023-06-14T04:45:02;11.93;;;6.18;;
62151;SDS011;48139;47.474;19.034;2023-06-14T04:51:09;12.55;;;5.15;;
62151;SDS011;48139;47.474;19.034;2023-06-14T04:54:11;10.90;;;5.47;;
62151;SDS011;48139;47.474;19.034;2023-06-14T04:57:17;13.35;;;5.40;;
62151;SDS011;48139;47.474;19.034;2023-06-14T05:03:23;16.65;;;7.35;;
62151;SDS011;48139;47.474;19.034;2023-06-14T05:06:26;13.65;;;5.90;;
62151;SDS011;48139;47.474;19.034;2023-06-14T05:12:32;11.25;;;5.80;;
62151;SDS011;48139;47.474;19.034;2023-06-14T05:15:36;10.27;;;5.65;;
62151;SDS011;48139;47.474;19.034;2023-06-14T05:18:39;11.70;;;5.40;;
62151;SDS011;48139;47.474;19.034;2023-06-14T05:21:42;11.27;;;6.28;;
62151;SDS011;48139;47.474;19.034;2023-06-14T05:24:45;12.32;;;5.60;;
62151;SDS011;48139;47.474;19.034;2023-06-14T05:27:49;16.50;;;6.43;;
62151;SDS011;48139;47.474;19.034;2023-06-14T05:30:52;9.88;;;4.97;;
62151;SDS011;48139;47.474;19.034;2023-06-14T05:33:55;9.17;;;3.93;;
62151;SDS011;48139;47.474;19.034;2023-06-14T05:36:58;12.75;;;6.50;;
62151;SDS011;48139;47.474;19.034;2023-06-14T05:40:03;13.18;;;5.57;;
62151;SDS011;48139;47.474;19.034;2023-06-14T05:43:08;9.60;;;4.87;;
62151;SDS011;48139;47.474;19.034;2023-06-14T05:46:10;10.90;;;5.60;;
62151;SDS011;48139;47.474;19.034;2023-06-14T05:49:13;11.50;;;4.93;;
62151;SDS011;48139;47.474;19.034;2023-06-14T05:52:15;12.57;;;5.05;;
62151;SDS011;48139;47.474;19.034;2023-06-14T05:55:18;12.27;;;5.70;;
62151;SDS011;48139;47.474;19.034;2023-06-14T05:58:21;10.65;;;5.05;;
62151;SDS011;48139;47.474;19.034;2023-06-14T06:01:24;9.48;;;5.43;;
62151;SDS011;48139;47.474;19.034;2023-06-14T06:04:27;11.82;;;4.43;;
62151;SDS011;48139;47.474;19.034;2023-06-14T06:07:30;9.75;;;4.18;;
62151;SDS011;48139;47.474;19.034;2023-06-14T06:10:33;11.27;;;5.10;;
62151;SDS011;48139;47.474;19.034;2023-06-14T06:13:35;12.90;;;5.10;;
62151;SDS011;48139;47.474;19.034;2023-06-14T06:16:46;10.95;;;4.72;;
62151;SDS011;48139;47.474;19.034;2023-06-14T06:19:56;14.93;;;6.25;;
62151;SDS011;48139;47.474;19.034;2023-06-14T06:22:59;10.77;;;5.32;;
62151;SDS011;48139;47.474;19.034;2023-06-14T06:26:02;8.23;;;4.00;;
62151;SDS011;48139;47.474;19.034;2023-06-14T06:29:05;10.38;;;5.25;;
62151;SDS011;48139;47.474;19.034;2023-06-14T06:32:08;9.32;;;4.45;;
62151;SDS011;48139;47.474;19.034;2023-06-14T06:35:11;10.43;;;3.97;;
62151;SDS011;48139;47.474;19.034;2023-06-14T06:38:15;10.43;;;6.43;;
62151;SDS011;48139;47.474;19.034;2023-06-14T06:44:21;9.63;;;4.47;;
62151;SDS011;48139;47.474;19.034;2023-06-14T06:47:25;7.50;;;3.85;;
62151;SDS011;48139;47.474;19.034;2023-06-14T06:50:27;8.88;;;4.18;;
62151;SDS011;48139;47.474;19.034;2023-06-14T06:56:43;9.20;;;4.50;;
62151;SDS011;48139;47.474;19.034;2023-06-14T06:59:46;12.75;;;5.78;;
62151;SDS011;48139;47.474;19.034;2023-06-14T07:02:49;11.00;;;4.80;;
62151;SDS011;48139;47.474;19.034;2023-06-14T07:05:52;7.10;;;3.78;;
62151;SDS011;48139;47.474;19.034;2023-06-14T07:08:54;11.18;;;4.72;;
62151;SDS011;48139;47.474;19.034;2023-06-14T07:11:57;9.23;;;4.68;;
62151;SDS011;48139;47.474;19.034;2023-06-14T07:14:59;10.25;;;4.12;;
62151;SDS011;48139;47.474;19.034;2023-06-14T07:18:04;7.85;;;3.72;;
62151;SDS011;48139;47.474;19.034;2023-06-14T07:21:09;9.15;;;4.05;;
62151;SDS011;48139;47.474;19.034;2023-06-14T07:24:12;7.03;;;3.90;;
62151;SDS011;48139;47.474;19.034;2023-06-14T07:27:14;8.50;;;4.95;;
62151;SDS011;48139;47.474;19.034;2023-06-14T07:30:17;8.13;;;3.55;;
62151;SDS011;48139;47.474;19.034;2023-06-14T07:33:19;8.18;;;4.80;;
62151;SDS011;48139;47.474;19.034;2023-06-14T07:36:22;11.02;;;4.57;;
62151;SDS011;48139;47.474;19.034;2023-06-14T07:39:25;10.55;;;4.65;;
62151;SDS011;48139;47.474;19.034;2023-06-14T07:42:28;6.05;;;3.12;;
62151;SDS011;48139;47.474;19.034;2023-06-14T07:45:30;7.27;;;3.80;;
62151;SDS011;48139;47.474;19.034;2023-06-14T07:48:33;6.85;;;3.22;;
62151;SDS011;48139;47.474;19.034;2023-06-14T07:51:37;11.43;;;4.40;;
62151;SDS011;48139;47.474;19.034;2023-06-14T07:54:40;9.73;;;5.18;;
62151;SDS011;48139;47.474;19.034;2023-06-14T07:57:43;8.95;;;4.78;;
62151;SDS011;48139;47.474;19.034;2023-06-14T08:00:46;11.45;;;3.60;;
62151;SDS011;48139;47.474;19.034;2023-06-14T08:06:52;9.32;;;4.07;;
62151;SDS011;48139;47.474;19.034;2023-06-14T08:12:57;10.63;;;3.85;;
62151;SDS011;48139;47.474;19.034;2023-06-14T08:16:01;35.75;;;5.75;;
62151;SDS011;48139;47.474;19.034;2023-06-14T08:19:03;8.73;;;3.97;;
62151;SDS011;48139;47.474;19.034;2023-06-14T08:22:07;9.13;;;4.07;;
62151;SDS011;48139;47.474;19.034;2023-06-14T08:25:10;10.82;;;5.03;;
62151;SDS011;48139;47.474;19.034;2023-06-14T08:28:15;8.70;;;4.85;;
62151;SDS011;48139;47.474;19.034;2023-06-14T08:31:17;11.68;;;5.10;;
62151;SDS011;48139;47.474;19.034;2023-06-14T08:34:20;9.07;;;3.58;;
62151;SDS011;48139;47.474;19.034;2023-06-14T08:37:22;13.48;;;4.85;;
62151;SDS011;48139;47.474;19.034;2023-06-14T08:40:25;14.70;;;4.60;;
62151;SDS011;48139;47.474;19.034;2023-06-14T08:43:32;10.02;;;3.90;;
62151;SDS011;48139;47.474;19.034;2023-06-14T08:46:35;15.13;;;5.32;;
62151;SDS011;48139;47.474;19.034;2023-06-14T08:49:39;9.05;;;3.70;;
62151;SDS011;48139;47.474;19.034;2023-06-14T08:52:51;13.45;;;4.60;;
62151;SDS011;48139;47.474;19.034;2023-06-14T08:55:56;9.82;;;4.20;;
62151;SDS011;48139;47.474;19.034;2023-06-14T08:58:59;21.08;;;6.60;;
62151;SDS011;48139;47.474;19.034;2023-06-14T09:02:05;11.73;;;4.35;;
62151;SDS011;48139;47.474;19.034;2023-06-14T09:05:14;11.15;;;3.35;;
62151;SDS011;48139;47.474;19.034;2023-06-14T09:08:20;10.15;;;4.15;;
62151;SDS011;48139;47.474;19.034;2023-06-14T09:11:24;12.20;;;3.70;;
62151;SDS011;48139;47.474;19.034;2023-06-14T09:14:28;9.05;;;4.00;;
62151;SDS011;48139;47.474;19.034;2023-06-14T09:17:35;8.88;;;3.83;;
62151;SDS011;48139;47.474;19.034;2023-06-14T09:20:38;12.93;;;4.07;;
62151;SDS011;48139;47.474;19.034;2023-06-14T09:23:48;5.90;;;3.28;;
62151;SDS011;48139;47.474;19.034;2023-06-14T09:26:51;13.62;;;3.60;;
62151;SDS011;48139;47.474;19.034;2023-06-14T09:29:54;24.48;;;6.43;;
62151;SDS011;48139;47.474;19.034;2023-06-14T09:36:03;11.50;;;4.60;;
62151;SDS011;48139;47.474;19.034;2023-06-14T09:39:07;15.68;;;5.32;;
62151;SDS011;48139;47.474;19.034;2023-06-14T09:42:18;10.23;;;4.70;;
62151;SDS011;48139;47.474;19.034;2023-06-14T09:45:25;6.95;;;3.72;;
62151;SDS011;48139;47.474;19.034;2023-06-14T09:48:32;11.35;;;3.67;;
62151;SDS011;48139;47.474;19.034;2023-06-14T09:51:36;6.68;;;3.62;;
62151;SDS011;48139;47.474;19.034;2023-06-14T09:54:46;7.97;;;3.80;;
62151;SDS011;48139;47.474;19.034;2023-06-14T09:57:49;10.35;;;3.78;;
62151;SDS011;48139;47.474;19.034;2023-06-14T10:00:53;7.85;;;3.05;;
62151;SDS011;48139;47.474;19.034;2023-06-14T10:04:06;6.65;;;3.00;;
62151;SDS011;48139;47.474;19.034;2023-06-14T10:07:14;7.60;;;3.45;;
62151;SDS011;48139;47.474;19.034;2023-06-14T10:10:22;5.20;;;2.90;;
62151;SDS011;48139;47.474;19.034;2023-06-14T10:13:25;7.95;;;3.40;;
62151;SDS011;48139;47.474;19.034;2023-06-14T10:16:38;10.15;;;4.47;;
62151;SDS011;48139;47.474;19.034;2023-06-14T10:19:48;6.82;;;3.17;;
62151;SDS011;48139;47.474;19.034;2023-06-14T10:23:29;8.35;;;3.40;;
62151;SDS011;48139;47.474;19.034;2023-06-14T10:26:25;8.90;;;3.50;;
62151;SDS011;48139;47.474;19.034;2023-06-14T10:29:28;6.00;;;3.40;;
62151;SDS011;48139;47.474;19.034;2023-06-14T10:32:34;8.70;;;3.95;;
62151;SDS011;48139;47.474;19.034;2023-06-14T10:38:40;10.25;;;3.20;;
62151;SDS011;48139;47.474;19.034;2023-06-14T10:41:54;8.07;;;3.50;;
62151;SDS011;48139;47.474;19.034;2023-06-14T10:44:58;6.32;;;2.85;;
62151;SDS011;48139;47.474;19.034;2023-06-14T10:48:04;6.07;;;3.62;;
62151;SDS011;48139;47.474;19.034;2023-06-14T10:55:07;6.90;;;2.62;;
62151;SDS011;48139;47.474;19.034;2023-06-14T10:58:21;4.93;;;2.75;;
62151;SDS011;48139;47.474;19.034;2023-06-14T11:11:31;5.72;;;2.97;;
62151;SDS011;48139;47.474;19.034;2023-06-14T11:14:38;4.93;;;2.50;;
62151;SDS011;48139;47.474;19.034;2023-06-14T11:17:51;5.90;;;2.40;;
62151;SDS011;48139;47.474;19.034;2023-06-14T11:20:59;6.47;;;2.30;;
62151;SDS011;48139;47.474;19.034;2023-06-14T11:24:02;6.15;;;3.08;;
62151;SDS011;48139;47.474;19.034;2023-06-14T11:27:05;6.03;;;2.47;;
62151;SDS011;48139;47.474;19.034;2023-06-14T11:30:08;5.82;;;2.70;;
62151;SDS011;48139;47.474;19.034;2023-06-14T11:33:18;7.18;;;2.90;;
62151;SDS011;48139;47.474;19.034;2023-06-14T11:36:21;8.73;;;2.75;;
62151;SDS011;48139;47.474;19.034;2023-06-14T11:39:24;6.40;;;2.90;;
62151;SDS011;48139;47.474;19.034;2023-06-14T11:42:27;4.95;;;2.78;;
62151;SDS011;48139;47.474;19.034;2023-06-14T11:45:31;4.47;;;2.17;;
62151;SDS011;48139;47.474;19.034;2023-06-14T11:48:41;5.70;;;2.83;;
62151;SDS011;48139;47.474;19.034;2023-06-14T11:51:45;7.05;;;2.97;;
62151;SDS011;48139;47.474;19.034;2023-06-14T11:57:51;4.90;;;2.50;;
62151;SDS011;48139;47.474;19.034;2023-06-14T12:00:57;5.80;;;2.75;;
62151;SDS011;48139;47.474;19.034;2023-06-14T12:04:01;7.05;;;3.30;;
62151;SDS011;48139;47.474;19.034;2023-06-14T12:07:10;6.40;;;2.75;;
62151;SDS011;48139;47.474;19.034;2023-06-14T12:10:20;5.57;;;2.58;;
62151;SDS011;48139;47.474;19.034;2023-06-14T12:13:24;5.65;;;3.05;;
62151;SDS011;48139;47.474;19.034;2023-06-14T12:16:31;6.28;;;2.55;;
62151;SDS011;48139;47.474;19.034;2023-06-14T12:19:44;5.30;;;2.83;;
62151;SDS011;48139;47.474;19.034;2023-06-14T12:25:53;4.75;;;2.35;;
62151;SDS011;48139;47.474;19.034;2023-06-14T12:31:59;6.10;;;3.15;;
62151;SDS011;48139;47.474;19.034;2023-06-14T12:35:02;8.48;;;2.70;;
62151;SDS011;48139;47.474;19.034;2023-06-14T12:38:07;7.93;;;2.80;;
62151;SDS011;48139;47.474;19.034;2023-06-14T12:41:09;6.28;;;2.50;;
62151;SDS011;48139;47.474;19.034;2023-06-14T12:44:12;6.00;;;2.65;;
62151;SDS011;48139;47.474;19.034;2023-06-14T12:47:15;8.55;;;3.50;;
62151;SDS011;48139;47.474;19.034;2023-06-14T12:50:18;6.40;;;2.92;;
62151;SDS011;48139;47.474;19.034;2023-06-14T12:53:23;5.93;;;2.90;;
62151;SDS011;48139;47.474;19.034;2023-06-14T12:56:26;5.25;;;2.47;;
62151;SDS011;48139;47.474;19.034;2023-06-14T12:59:29;7.18;;;3.25;;
62151;SDS011;48139;47.474;19.034;2023-06-14T13:02:35;6.30;;;2.95;;
62151;SDS011;48139;47.474;19.034;2023-06-14T13:05:38;6.70;;;2.80;;
62151;SDS011;48139;47.474;19.034;2023-06-14T13:08:43;5.12;;;2.47;;
62151;SDS011;48139;47.474;19.034;2023-06-14T13:11:46;3.65;;;1.90;;
62151;SDS011;48139;47.474;19.034;2023-06-14T13:17:51;4.83;;;2.70;;
62151;SDS011;48139;47.474;19.034;2023-06-14T13:20:54;7.10;;;2.92;;
62151;SDS011;48139;47.474;19.034;2023-06-14T13:23:57;5.57;;;2.85;;
62151;SDS011;48139;47.474;19.034;2023-06-14T13:27:00;6.40;;;2.78;;
62151;SDS011;48139;47.474;19.034;2023-06-14T13:30:03;6.75;;;3.25;;
62151;SDS011;48139;47.474;19.034;2023-06-14T13:33:08;5.30;;;2.85;;
62151;SDS011;48139;47.474;19.034;2023-06-14T13:36:12;7.70;;;3.08;;
62151;SDS011;48139;47.474;19.034;2023-06-14T13:39:15;4.05;;;2.45;;
62151;SDS011;48139;47.474;19.034;2023-06-14T13:42:18;5.87;;;3.40;;
62151;SDS011;48139;47.474;19.034;2023-06-14T13:45:20;5.72;;;2.55;;
62151;SDS011;48139;47.474;19.034;2023-06-14T13:48:23;4.10;;;2.37;;
62151;SDS011;48139;47.474;19.034;2023-06-14T13:51:25;8.65;;;3.45;;
62151;SDS011;48139;47.474;19.034;2023-06-14T13:54:29;5.30;;;2.58;;
62151;SDS011;48139;47.474;19.034;2023-06-14T13:57:32;5.32;;;3.30;;
62151;SDS011;48139;47.474;19.034;2023-06-14T14:00:35;6.12;;;2.37;;
62151;SDS011;48139;47.474;19.034;2023-06-14T14:03:42;4.65;;;2.53;;
62151;SDS011;48139;47.474;19.034;2023-06-14T14:06:45;5.57;;;2.85;;
62151;SDS011;48139;47.474;19.034;2023-06-14T14:09:50;4.50;;;2.30;;
62151;SDS011;48139;47.474;19.034;2023-06-14T14:12:53;4.93;;;2.37;;
62151;SDS011;48139;47.474;19.034;2023-06-14T14:15:57;5.30;;;3.10;;
62151;SDS011;48139;47.474;19.034;2023-06-14T14:18:59;6.22;;;2.42;;
62151;SDS011;48139;47.474;19.034;2023-06-14T14:22:02;7.28;;;3.30;;
62151;SDS011;48139;47.474;19.034;2023-06-14T14:25:08;5.35;;;2.90;;
62151;SDS011;48139;47.474;19.034;2023-06-14T14:28:11;5.32;;;3.40;;
62151;SDS011;48139;47.474;19.034;2023-06-14T14:31:15;6.05;;;2.70;;
62151;SDS011;48139;47.474;19.034;2023-06-14T14:34:18;6.35;;;3.25;;
62151;SDS011;48139;47.474;19.034;2023-06-14T14:37:21;5.70;;;2.90;;
62151;SDS011;48139;47.474;19.034;2023-06-14T14:40:24;4.82;;;2.03;;
62151;SDS011;48139;47.474;19.034;2023-06-14T14:43:33;4.50;;;1.98;;
62151;SDS011;48139;47.474;19.034;2023-06-14T14:46:35;6.37;;;3.10;;
62151;SDS011;48139;47.474;19.034;2023-06-14T14:49:38;4.75;;;2.42;;
62151;SDS011;48139;47.474;19.034;2023-06-14T14:52:40;5.80;;;2.20;;
62151;SDS011;48139;47.474;19.034;2023-06-14T14:55:44;6.75;;;2.80;;
62151;SDS011;48139;47.474;19.034;2023-06-14T14:58:48;33.97;;;7.97;;
62151;SDS011;48139;47.474;19.034;2023-06-14T15:04:54;13.60;;;3.77;;
62151;SDS011;48139;47.474;19.034;2023-06-14T15:07:59;36.20;;;7.05;;
62151;SDS011;48139;47.474;19.034;2023-06-14T15:11:02;7.60;;;2.30;;
62151;SDS011;48139;47.474;19.034;2023-06-14T15:14:05;4.55;;;2.25;;
62151;SDS011;48139;47.474;19.034;2023-06-14T15:20:10;4.75;;;2.42;;
62151;SDS011;48139;47.474;19.034;2023-06-14T15:23:15;5.07;;;2.42;;
62151;SDS011;48139;47.474;19.034;2023-06-14T15:26:22;6.07;;;2.25;;
62151;SDS011;48139;47.474;19.034;2023-06-14T15:29:26;4.20;;;2.35;;
62151;SDS011;48139;47.474;19.034;2023-06-14T15:32:29;4.85;;;2.53;;
62151;SDS011;48139;47.474;19.034;2023-06-14T15:35:32;5.90;;;2.47;;
62151;SDS011;48139;47.474;19.034;2023-06-14T15:38:34;5.00;;;2.30;;
62151;SDS011;48139;47.474;19.034;2023-06-14T15:41:37;6.37;;;2.65;;
62151;SDS011;48139;47.474;19.034;2023-06-14T15:44:40;4.25;;;2.28;;
62151;SDS011;48139;47.474;19.034;2023-06-14T15:47:44;6.05;;;3.65;;
62151;SDS011;48139;47.474;19.034;2023-06-14T15:50:47;4.20;;;2.00;;
62151;SDS011;48139;47.474;19.034;2023-06-14T15:53:49;6.05;;;2.60;;
62151;SDS011;48139;47.474;19.034;2023-06-14T15:56:52;5.50;;;2.40;;
62151;SDS011;48139;47.474;19.034;2023-06-14T15:59:55;5.50;;;2.28;;
62151;SDS011;48139;47.474;19.034;2023-06-14T16:02:58;4.87;;;2.22;;
